createdAt,value
2019-05-09T00:01:33.551Z,95876.88
2019-05-09T00:06:37.071Z,95864.03
2019-05-09T00:11:40.528Z,95868.94
2019-05-09T00:16:44.213Z,95878.47
2019-05-09T00:21:56.316Z,95861.39
2019-05-09T00:26:59.993Z,95872.09
2019-05-09T00:32:13.559Z,95876.64
2019-05-09T00:37:16.427Z,95866.19
2019-05-09T00:42:19.856Z,95877.34
2019-05-09T00:47:24.921Z,95861.61
2019-05-09T00:52:28.353Z,95874.70
2019-05-09T00:57:34.187Z,95869.06
2019-05-09T01:02:37.617Z,95873.18
2019-05-09T01:07:43.027Z,95872.56
2019-05-09T01:12:46.195Z,95871.05
2019-05-09T01:17:49.920Z,95863.44
2019-05-09T01:22:54.096Z,95877.14
2019-05-09T01:27:57.547Z,95884.11
2019-05-09T01:33:13.603Z,95876.66
2019-05-09T01:38:16.825Z,95873.45
2019-05-09T01:43:20.257Z,95872.48
2019-05-09T01:48:23.778Z,95870.27
2019-05-09T01:53:28.843Z,95861.22
2019-05-09T01:58:34.324Z,95862.83
2019-05-09T02:03:37.917Z,95877.73
2019-05-09T02:08:43.625Z,95866.91
2019-05-09T02:13:46.501Z,95860.55
2019-05-09T02:18:53.470Z,95862.67
2019-05-09T02:23:56.891Z,95850.78
2019-05-09T02:29:00.309Z,95856.14
2019-05-09T02:34:05.065Z,95857.11
2019-05-09T02:39:09.250Z,95849.59
2019-05-09T02:44:12.755Z,95858.09
2019-05-09T02:49:18.898Z,95854.22
2019-05-09T02:54:21.346Z,95858.73
2019-05-09T02:59:29.616Z,95852.80
2019-05-09T03:04:31.827Z,95850.56
2019-05-09T03:09:35.258Z,95840.52
2019-05-09T03:14:38.756Z,95839.09
2019-05-09T03:19:42.116Z,95837.48
2019-05-09T03:24:48.546Z,95836.36
2019-05-09T03:29:52.582Z,95828.66
2019-05-09T03:34:57.965Z,95825.77
2019-05-09T03:40:01.154Z,95821.27
2019-05-09T03:45:08.288Z,95833.91
2019-05-09T03:50:13.174Z,95832.30
2019-05-09T03:55:18.310Z,95833.06
2019-05-09T04:00:21.804Z,95831.30
2019-05-09T04:05:27.165Z,95829.72
2019-05-09T04:10:30.385Z,95831.09
2019-05-09T04:15:33.813Z,95831.48
2019-05-09T04:20:37.789Z,95833.89
2019-05-09T04:26:01.025Z,95833.13
2019-05-09T04:31:04.462Z,95848.42
2019-05-09T04:36:08.388Z,95846.04
2019-05-09T04:41:16.380Z,95853.78
2019-05-09T04:46:21.059Z,95853.20
2019-05-09T04:51:22.191Z,95839.53
2019-05-09T04:56:27.871Z,95829.80
2019-05-09T05:01:39.050Z,95839.47
2019-05-09T05:06:42.790Z,95843.75
2019-05-09T05:11:49.056Z,95850.38
2019-05-09T05:16:54.845Z,95843.04
2019-05-09T05:21:59.471Z,95842.48
2019-05-09T05:27:02.893Z,95849.59
2019-05-09T05:32:08.556Z,95851.08
2019-05-09T05:37:11.965Z,95846.04
2019-05-09T05:42:17.591Z,95848.11
2019-05-09T05:47:37.987Z,95834.22
2019-05-09T05:52:41.477Z,95838.16
2019-05-09T05:57:44.908Z,95829.21
2019-05-09T06:02:48.349Z,95836.63
2019-05-09T06:07:51.764Z,95848.73
2019-05-09T06:12:57.358Z,95849.03
2019-05-09T06:18:00.338Z,95848.33
2019-05-09T06:23:03.773Z,95847.95
2019-05-09T06:28:07.742Z,95841.58
2019-05-09T06:33:11.216Z,95850.19
2019-05-09T06:38:14.649Z,95841.91
2019-05-09T06:43:22.436Z,95834.69
2019-05-09T06:48:25.865Z,95838.36
2019-05-09T06:53:29.287Z,95848.72
2019-05-09T06:58:33.987Z,95859.31
2019-05-09T07:03:39.050Z,95852.41
2019-05-09T07:08:49.551Z,95855.47
2019-05-09T07:13:52.975Z,95851.16
2019-05-09T07:18:57.906Z,95846.08
2019-05-09T07:24:01.458Z,95851.16
2019-05-09T07:29:07.332Z,95834.59
2019-05-09T07:34:14.349Z,95828.34
2019-05-09T07:39:17.855Z,95821.92
2019-05-09T07:44:21.305Z,95820.37
2019-05-09T07:49:24.711Z,95825.03
2019-05-09T07:54:29.271Z,95814.66
2019-05-09T07:59:33.145Z,95817.45
2019-05-09T08:04:38.562Z,95811.94
2019-05-09T08:09:41.745Z,95804.77
2019-05-09T08:14:45.179Z,95807.50
2019-05-09T08:19:48.641Z,95795.36
2019-05-09T08:24:52.040Z,95787.18
2019-05-09T08:29:58.348Z,95787.18
2019-05-09T08:35:01.671Z,95788.25
2019-05-09T08:40:08.035Z,95788.61
2019-05-09T08:45:24.474Z,95780.09
2019-05-09T08:50:18.747Z,95786.19
2019-05-09T08:55:22.190Z,95792.13
2019-05-09T09:00:27.960Z,95792.39
2019-05-09T09:05:30.769Z,95792.30
2019-05-09T09:10:34.399Z,95791.41
2019-05-09T09:16:00.657Z,95793.73
2019-05-09T09:20:42.947Z,95794.92
2019-05-09T09:25:48.720Z,95789.62
2019-05-09T09:30:51.500Z,95789.09
2019-05-09T09:35:54.878Z,95774.30
2019-05-09T09:40:58.264Z,95766.39
2019-05-09T09:46:10.277Z,95756.73
2019-05-09T09:51:07.996Z,95763.73
2019-05-09T09:56:11.611Z,95759.94
2019-05-09T10:01:18.108Z,95762.00
2019-05-09T10:06:21.610Z,95765.98
2019-05-09T10:11:25.003Z,95758.98
2019-05-09T10:16:44.799Z,95761.27
2019-05-09T10:21:57.715Z,95755.65
2019-05-09T10:27:11.114Z,95755.77
2019-05-09T10:32:18.153Z,95752.94
2019-05-09T10:37:21.502Z,95749.59
2019-05-09T10:42:28.598Z,95753.30
2019-05-09T10:47:33.511Z,95751.32
2019-05-09T10:52:36.940Z,95767.43
2019-05-09T10:57:42.476Z,95772.04
2019-05-09T11:02:45.438Z,95782.90
2019-05-09T11:07:49.500Z,95787.09
2019-05-09T11:12:53.015Z,95861.36
2019-05-09T11:17:57.707Z,95918.09
2019-05-09T11:23:01.226Z,95905.60
2019-05-09T11:28:10.986Z,95903.36
2019-05-09T11:33:09.961Z,95894.11
2019-05-09T11:38:13.376Z,95886.34
2019-05-09T11:43:18.121Z,95879.27
2019-05-09T11:48:21.666Z,95893.04
2019-05-09T11:53:25.056Z,95877.08
2019-05-09T11:58:28.452Z,95870.08
2019-05-09T12:03:32.082Z,95844.50
2019-05-09T12:08:35.718Z,95844.10
2019-05-09T12:13:39.135Z,95828.09
2019-05-09T12:18:42.762Z,95802.88
2019-05-09T12:23:48.817Z,95807.48
2019-05-09T12:28:51.665Z,95807.48
2019-05-09T12:33:55.225Z,95803.13
2019-05-09T12:38:59.355Z,95796.56
2019-05-09T12:44:03.185Z,95791.63
2019-05-09T12:49:08.723Z,95783.20
2019-05-09T12:54:11.694Z,95774.44
2019-05-09T12:59:15.082Z,95766.88
2019-05-09T13:04:18.479Z,95761.83
2019-05-09T13:09:22.109Z,95776.38
2019-05-09T13:14:28.402Z,95765.75
2019-05-09T13:19:37.979Z,95763.90
2019-05-09T13:24:40.596Z,95747.55
2019-05-09T13:29:44.002Z,95744.67
2019-05-09T13:34:48.609Z,95741.09
2019-05-09T13:39:52.487Z,95734.39
2019-05-09T13:44:55.882Z,95739.55
2019-05-09T13:49:59.504Z,95730.60
2019-05-09T13:55:02.908Z,95731.62
2019-05-09T14:00:08.864Z,95713.41
2019-05-09T14:05:12.380Z,95730.14
2019-05-09T14:10:17.755Z,95717.78
2019-05-09T14:15:20.949Z,95715.97
2019-05-09T14:20:24.347Z,95724.02
2019-05-09T14:25:29.097Z,95725.86
2019-05-09T14:30:32.615Z,95764.23
2019-05-09T14:35:38.510Z,95756.78
2019-05-09T14:40:41.115Z,95769.48
2019-05-09T14:45:44.588Z,95753.56
2019-05-09T14:50:49.536Z,95757.80
2019-05-09T14:55:53.052Z,95749.02
2019-05-09T15:01:00.687Z,95738.06
2019-05-09T15:06:01.554Z,95727.02
2019-05-09T15:11:04.942Z,95727.25
2019-05-09T15:16:08.934Z,95732.09
2019-05-09T15:21:12.330Z,95737.39
2019-05-09T15:26:17.691Z,95740.95
2019-05-09T15:31:20.833Z,95738.56
2019-05-09T15:36:24.226Z,95730.39
2019-05-09T15:41:27.825Z,95721.34
2019-05-09T15:46:32.818Z,95728.09
2019-05-09T15:51:38.492Z,95732.89
2019-05-09T15:56:44.084Z,95728.38
2019-05-09T16:01:49.245Z,95728.06
2019-05-09T16:06:52.585Z,95731.77
2019-05-09T16:11:56.417Z,95743.62
2019-05-09T16:16:59.817Z,95752.34
2019-05-09T16:22:03.244Z,95763.80
2019-05-09T16:27:08.453Z,95773.09
2019-05-09T16:32:12.040Z,95828.52
2019-05-09T16:37:15.430Z,95814.91
2019-05-09T16:42:18.820Z,95804.13
2019-05-09T16:47:22.726Z,95799.03
2019-05-09T16:52:26.192Z,95805.69
2019-05-09T16:57:29.567Z,95816.37
2019-05-09T17:02:32.961Z,95819.20
2019-05-09T17:07:38.462Z,95823.14
2019-05-09T17:12:41.709Z,95826.06
2019-05-09T17:17:45.111Z,95819.56
2019-05-09T17:23:12.789Z,95825.01
2019-05-09T17:28:11.859Z,95845.91
2019-05-09T17:33:15.251Z,95839.19
2019-05-09T17:38:18.651Z,95845.35
2019-05-09T17:43:22.043Z,95848.20
2019-05-09T17:48:28.263Z,95851.55
2019-05-09T17:53:33.489Z,95861.87
2019-05-09T17:58:38.053Z,95861.87
2019-05-09T18:03:41.097Z,95871.04
2019-05-09T18:08:44.485Z,95877.18
2019-05-09T18:13:48.247Z,95872.89
2019-05-09T18:18:54.954Z,95905.45
2019-05-09T18:23:58.759Z,95887.63
2019-05-09T18:29:02.218Z,95897.68
2019-05-09T18:34:07.770Z,95907.09
2019-05-09T18:39:10.789Z,95912.52
2019-05-09T18:44:14.184Z,95926.81
2019-05-09T18:49:17.579Z,95926.58
2019-05-09T18:54:21.211Z,95941.98
2019-05-09T18:59:24.616Z,95938.09
2019-05-09T19:04:27.989Z,95947.22
2019-05-09T19:09:31.614Z,95974.02
2019-05-09T19:14:35.246Z,95963.02
2019-05-09T19:19:40.281Z,95982.13
2019-05-09T19:24:43.669Z,95987.55
2019-05-09T19:29:47.057Z,96000.44
2019-05-09T19:34:50.693Z,96002.36
2019-05-09T19:39:54.316Z,96007.97
2019-05-09T19:44:57.711Z,96004.71
2019-05-09T19:50:01.136Z,96011.50
2019-05-09T19:55:05.827Z,96027.05
2019-05-09T20:00:09.966Z,96037.02
2019-05-09T20:05:13.690Z,96040.41
2019-05-09T20:10:18.790Z,96051.49
2019-05-09T20:15:23.594Z,96057.28
2019-05-09T20:20:27.288Z,96076.97
2019-05-09T20:25:30.724Z,96075.59
2019-05-09T20:30:34.111Z,96075.44
2019-05-09T20:35:37.506Z,96081.10
2019-05-09T20:40:41.081Z,96089.83
2019-05-09T20:45:44.657Z,96100.36
2019-05-09T20:50:48.235Z,96104.81
2019-05-09T20:55:51.815Z,96113.27
2019-05-09T21:00:55.393Z,96122.20
2019-05-09T21:05:58.966Z,96123.92
2019-05-09T21:11:02.541Z,96123.41
2019-05-09T21:16:06.140Z,96127.81
2019-05-09T21:21:09.716Z,96130.43
2019-05-09T21:26:13.291Z,96129.16
2019-05-09T21:31:16.870Z,96131.92
2019-05-09T21:36:20.282Z,96144.51
2019-05-09T21:41:23.662Z,96146.44
2019-05-09T21:46:27.052Z,96161.00
2019-05-09T21:51:30.440Z,96160.79
2019-05-09T21:56:34.072Z,96166.70
2019-05-09T22:01:37.600Z,96172.56
2019-05-09T22:06:40.989Z,96177.88
2019-05-09T22:11:44.625Z,96174.14
2019-05-09T22:16:49.189Z,96171.94
2019-05-09T22:21:52.576Z,96188.88
2019-05-09T22:26:55.965Z,96198.05
2019-05-09T22:31:59.352Z,96198.81
2019-05-09T22:37:02.740Z,96205.88
2019-05-09T22:42:06.365Z,96210.55
2019-05-09T22:47:09.754Z,96212.48
2019-05-09T22:52:13.147Z,96215.19
2019-05-09T22:57:16.563Z,96219.49
2019-05-09T23:02:19.945Z,96220.78
2019-05-09T23:07:23.347Z,96228.33
2019-05-09T23:12:26.968Z,96244.63
2019-05-09T23:17:30.356Z,96247.02
2019-05-09T23:22:33.980Z,96253.23
2019-05-09T23:27:37.374Z,96256.47
2019-05-09T23:32:42.405Z,96258.50
2019-05-09T23:37:46.036Z,96255.97
2019-05-09T23:42:49.427Z,96253.38
2019-05-09T23:47:52.821Z,96259.71
2019-05-09T23:52:56.215Z,96268.77
2019-05-09T23:58:17.620Z,96262.16
